createdAt,value
2022-12-25T00:00:20.873Z,7.60
2022-12-25T00:03:07.745Z,8.90
2022-12-25T00:05:36.934Z,11.80
2022-12-25T00:08:03.463Z,11.50
2022-12-25T00:10:29.894Z,7.70
2022-12-25T00:12:56.324Z,6.50
2022-12-25T00:15:22.675Z,17.80
2022-12-25T00:17:49.087Z,8.20
2022-12-25T00:20:15.742Z,9.60
2022-12-25T00:22:42.070Z,7.10
2022-12-25T00:25:08.694Z,9.10
2022-12-25T00:27:37.060Z,9.10
2022-12-25T00:30:09.848Z,8.90
2022-12-25T00:32:36.832Z,7.20
2022-12-25T00:35:04.327Z,8.80
2022-12-25T00:37:30.810Z,9.20
2022-12-25T00:39:57.221Z,8.00
2022-12-25T00:42:24.477Z,9.50
2022-12-25T00:44:50.814Z,8.80
2022-12-25T00:47:17.843Z,5.90
2022-12-25T00:49:44.503Z,9.80
2022-12-25T00:52:11.114Z,11.60
2022-12-25T00:54:37.601Z,9.40
2022-12-25T00:57:04.106Z,12.00
2022-12-25T00:59:31.570Z,11.50
2022-12-25T01:02:18.067Z,11.60
2022-12-25T01:04:44.703Z,11.10
2022-12-25T01:07:11.122Z,13.70
2022-12-25T01:09:56.621Z,10.40
2022-12-25T01:12:23.386Z,11.30
2022-12-25T01:14:49.883Z,8.40
2022-12-25T01:17:16.267Z,10.90
2022-12-25T01:19:42.752Z,11.20
2022-12-25T01:22:09.360Z,10.50
2022-12-25T01:24:35.829Z,10.70
2022-12-25T01:27:02.194Z,9.90
2022-12-25T01:29:28.791Z,21.40
2022-12-25T01:31:55.289Z,9.50
2022-12-25T01:34:21.829Z,8.40
2022-12-25T01:36:48.906Z,11.30
2022-12-25T01:39:15.350Z,10.00
2022-12-25T01:41:41.769Z,9.80
2022-12-25T01:44:14.269Z,7.80
2022-12-25T01:46:40.764Z,10.70
2022-12-25T01:49:15.732Z,11.70
2022-12-25T01:51:47.431Z,14.50
2022-12-25T01:54:16.883Z,11.70
2022-12-25T01:56:44.844Z,11.70
2022-12-25T01:59:12.857Z,12.70
2022-12-25T02:01:39.440Z,10.30
2022-12-25T02:04:12.253Z,13.80
2022-12-25T02:06:38.827Z,11.70
2022-12-25T02:09:05.237Z,14.50
2022-12-25T02:11:50.304Z,9.30
2022-12-25T02:14:16.679Z,8.50
2022-12-25T02:16:56.905Z,11.50
2022-12-25T02:19:36.023Z,13.10
2022-12-25T02:22:22.643Z,11.20
2022-12-25T02:24:52.642Z,10.00
2022-12-25T02:27:38.726Z,12.20
2022-12-25T02:30:06.680Z,11.50
2022-12-25T02:32:43.796Z,11.10
2022-12-25T02:35:10.209Z,11.30
2022-12-25T02:37:43.189Z,15.70
2022-12-25T02:40:15.355Z,11.90
2022-12-25T02:43:06.856Z,20.50
2022-12-25T02:45:54.917Z,13.60
2022-12-25T02:48:41.987Z,12.90
2022-12-25T02:51:28.508Z,12.60
2022-12-25T02:54:15.059Z,14.70
2022-12-25T02:57:01.754Z,22.80
2022-12-25T02:59:48.795Z,15.10
2022-12-25T03:02:35.473Z,45.40
2022-12-25T03:05:23.276Z,14.10
2022-12-25T03:07:50.487Z,13.00
2022-12-25T03:10:36.604Z,13.20
2022-12-25T03:13:11.531Z,10.90
2022-12-25T03:15:56.858Z,10.90
2022-12-25T03:18:25.399Z,12.20
2022-12-25T03:21:11.177Z,11.20
2022-12-25T03:23:57.942Z,13.00
2022-12-25T03:26:44.201Z,16.90
2022-12-25T03:29:31.964Z,11.10
2022-12-25T03:32:07.795Z,13.20
2022-12-25T03:34:52.802Z,17.40
2022-12-25T03:37:44.712Z,17.10
2022-12-25T03:40:35.219Z,14.80
2022-12-25T03:43:16.504Z,13.40
2022-12-25T03:46:06.417Z,14.60
2022-12-25T03:48:54.493Z,14.90
2022-12-25T03:51:44.308Z,10.60
2022-12-25T03:54:30.788Z,12.30
2022-12-25T03:57:16.582Z,11.40
2022-12-25T04:00:01.561Z,34.00
2022-12-25T04:02:46.991Z,13.80
2022-12-25T04:05:32.415Z,11.40
2022-12-25T04:08:17.380Z,14.70
2022-12-25T04:11:02.456Z,7.80
2022-12-25T04:13:47.432Z,11.90
2022-12-25T04:16:32.390Z,9.60
2022-12-25T04:19:17.383Z,15.90
2022-12-25T04:22:02.452Z,9.90
2022-12-25T04:24:47.321Z,10.40
2022-12-25T04:27:32.487Z,12.60
2022-12-25T04:30:17.449Z,15.40
2022-12-25T04:33:02.825Z,11.20
2022-12-25T04:35:48.031Z,13.30
2022-12-25T04:38:14.422Z,11.70
2022-12-25T04:40:40.817Z,13.50
2022-12-25T04:43:07.148Z,16.00
2022-12-25T04:45:33.617Z,12.30
2022-12-25T04:48:00.243Z,16.80
2022-12-25T04:50:26.731Z,12.10
2022-12-25T04:52:53.134Z,10.80
2022-12-25T04:55:19.527Z,16.00
2022-12-25T04:57:46.137Z,12.70
2022-12-25T05:00:12.872Z,13.20
2022-12-25T05:02:39.408Z,12.40
2022-12-25T05:05:06.282Z,12.80
2022-12-25T05:07:32.742Z,12.40
2022-12-25T05:09:59.089Z,11.60
2022-12-25T05:12:25.476Z,16.20
2022-12-25T05:14:51.821Z,11.90
2022-12-25T05:17:18.166Z,15.80
2022-12-25T05:19:44.599Z,12.30
2022-12-25T05:22:11.049Z,14.20
2022-12-25T05:24:37.469Z,18.40
2022-12-25T05:27:03.823Z,17.30
2022-12-25T05:29:30.187Z,13.70
2022-12-25T05:31:56.666Z,18.10
2022-12-25T05:34:23.116Z,13.80
2022-12-25T05:36:49.457Z,16.00
2022-12-25T05:39:15.820Z,16.30
2022-12-25T05:41:42.236Z,14.60
2022-12-25T05:44:08.753Z,27.20
2022-12-25T05:46:35.182Z,14.30
2022-12-25T05:49:01.698Z,15.50
2022-12-25T05:51:28.130Z,22.90
2022-12-25T05:53:54.562Z,18.50
2022-12-25T05:56:20.989Z,13.60
2022-12-25T05:58:47.390Z,14.60
2022-12-25T06:01:15.673Z,18.60
2022-12-25T06:03:42.618Z,20.00
2022-12-25T06:06:09.302Z,30.40
2022-12-25T06:08:35.762Z,31.40
2022-12-25T06:11:03.506Z,17.50
2022-12-25T06:13:30.658Z,13.50
2022-12-25T06:15:57.087Z,11.30
2022-12-25T06:18:23.721Z,13.00
2022-12-25T06:20:50.069Z,10.90
2022-12-25T06:23:16.545Z,14.70
2022-12-25T06:25:43.034Z,11.00
2022-12-25T06:28:09.450Z,14.00
2022-12-25T06:30:35.869Z,18.80
2022-12-25T06:33:02.413Z,17.10
2022-12-25T06:35:28.940Z,13.40
2022-12-25T06:37:56.113Z,16.50
2022-12-25T06:40:22.627Z,10.60
2022-12-25T06:42:49.012Z,10.20
2022-12-25T06:45:15.435Z,11.20
2022-12-25T06:47:44.077Z,15.00
2022-12-25T06:50:10.514Z,13.10
2022-12-25T06:52:36.960Z,14.40
2022-12-25T06:55:03.460Z,14.20
2022-12-25T06:57:29.787Z,16.40
2022-12-25T06:59:56.295Z,12.60
2022-12-25T07:02:23.365Z,12.40
2022-12-25T07:04:50.701Z,15.70
2022-12-25T07:07:17.028Z,16.00
2022-12-25T07:09:43.545Z,13.00
2022-12-25T07:12:14.463Z,17.00
2022-12-25T07:14:40.986Z,11.30
2022-12-25T07:17:07.502Z,11.40
2022-12-25T07:19:35.287Z,11.70
2022-12-25T07:22:03.513Z,11.40
2022-12-25T07:24:29.993Z,7.10
2022-12-25T07:26:56.365Z,9.50
2022-12-25T07:29:22.865Z,9.10
2022-12-25T07:31:49.537Z,6.70
2022-12-25T07:34:16.747Z,7.90
2022-12-25T07:36:43.243Z,10.60
2022-12-25T07:39:10.473Z,11.10
2022-12-25T07:41:36.971Z,7.90
2022-12-25T07:44:13.243Z,8.90
2022-12-25T07:46:39.665Z,7.20
2022-12-25T07:49:06.101Z,6.50
2022-12-25T07:51:32.654Z,8.50
2022-12-25T07:53:59.067Z,8.50
2022-12-25T07:56:25.496Z,10.90
2022-12-25T07:58:51.893Z,11.40
2022-12-25T08:01:23.513Z,15.00
2022-12-25T08:03:51.846Z,17.60
2022-12-25T08:06:19.128Z,15.80
2022-12-25T08:08:45.770Z,12.70
2022-12-25T08:11:12.206Z,10.40
2022-12-25T08:13:39.161Z,12.80
2022-12-25T08:16:09.927Z,22.60
2022-12-25T08:21:04.715Z,22.80
2022-12-25T08:23:33.279Z,24.00
2022-12-25T08:26:05.178Z,22.90
2022-12-25T08:28:33.480Z,19.50
2022-12-25T08:31:05.191Z,23.50
2022-12-25T08:33:31.585Z,25.10
2022-12-25T08:36:02.415Z,23.00
2022-12-25T08:40:55.294Z,16.80
2022-12-25T08:43:21.833Z,17.00
2022-12-25T08:45:48.597Z,12.70
2022-12-25T08:48:15.212Z,48.30
2022-12-25T08:50:48.899Z,71.90
2022-12-25T08:53:15.320Z,44.30
2022-12-25T08:55:41.668Z,29.00
2022-12-25T08:58:08.727Z,23.50
2022-12-25T09:00:35.666Z,25.70
2022-12-25T09:03:02.647Z,29.80
2022-12-25T09:05:29.360Z,26.90
2022-12-25T09:07:55.689Z,32.80
2022-12-25T09:10:22.253Z,25.20
2022-12-25T09:12:48.704Z,23.50
2022-12-25T09:15:15.068Z,19.60
2022-12-25T09:17:41.425Z,20.60
2022-12-25T09:20:07.916Z,22.00
2022-12-25T09:22:34.343Z,17.80
2022-12-25T09:25:00.817Z,17.00
2022-12-25T09:27:27.302Z,16.50
2022-12-25T09:29:53.622Z,16.70
2022-12-25T09:32:20.081Z,16.70
2022-12-25T09:34:46.592Z,20.60
2022-12-25T09:37:12.972Z,17.10
2022-12-25T09:39:45.923Z,13.30
2022-12-25T09:42:23.532Z,10.00
2022-12-25T09:44:54.402Z,9.60
2022-12-25T09:47:26.843Z,12.60
2022-12-25T09:49:59.193Z,9.20
2022-12-25T09:52:34.623Z,9.80
2022-12-25T09:55:07.648Z,10.30
2022-12-25T09:57:34.222Z,10.90
2022-12-25T10:00:00.650Z,9.50
2022-12-25T10:02:33.419Z,13.90
2022-12-25T10:05:09.192Z,20.70
2022-12-25T10:07:35.556Z,14.80
2022-12-25T10:10:04.884Z,9.70
2022-12-25T10:12:41.638Z,11.40
2022-12-25T10:15:12.636Z,8.30
2022-12-25T10:17:45.939Z,8.20
2022-12-25T10:20:21.185Z,8.30
2022-12-25T10:22:51.387Z,10.00
2022-12-25T10:25:22.526Z,10.80
2022-12-25T10:27:51.304Z,11.50
2022-12-25T10:30:19.338Z,18.40
2022-12-25T10:32:46.133Z,12.00
2022-12-25T10:35:13.690Z,12.50
2022-12-25T10:37:41.183Z,7.60
2022-12-25T10:40:25.908Z,8.00
2022-12-25T10:42:54.807Z,9.10
2022-12-25T10:45:21.259Z,9.90
2022-12-25T10:47:51.337Z,14.70
2022-12-25T10:50:22.321Z,13.20
2022-12-25T10:53:05.530Z,14.30
2022-12-25T10:55:32.276Z,18.20
2022-12-25T10:57:58.753Z,20.80
2022-12-25T11:00:27.181Z,18.50
2022-12-25T11:02:54.216Z,27.40
2022-12-25T11:05:25.577Z,21.60
2022-12-25T11:07:55.583Z,67.60
2022-12-25T11:10:31.392Z,104.50
2022-12-25T11:12:58.901Z,27.00
2022-12-25T11:15:31.235Z,22.90
2022-12-25T11:17:57.602Z,19.90
2022-12-25T11:20:23.950Z,19.80
2022-12-25T11:22:50.568Z,19.00
2022-12-25T11:25:24.852Z,18.00
2022-12-25T11:27:58.365Z,20.30
2022-12-25T11:30:24.948Z,20.00
2022-12-25T11:32:55.563Z,135.00
2022-12-25T11:37:49.544Z,25.90
2022-12-25T11:40:17.848Z,36.30
2022-12-25T11:43:08.370Z,28.20
2022-12-25T11:45:36.893Z,31.80
2022-12-25T11:48:03.374Z,28.40
2022-12-25T11:50:32.139Z,28.70
2022-12-25T11:53:01.317Z,27.50
2022-12-25T11:55:30.702Z,29.80
2022-12-25T11:57:59.513Z,30.50
2022-12-25T12:00:26.881Z,19.20
2022-12-25T12:03:13.714Z,16.90
2022-12-25T12:05:58.604Z,18.80
2022-12-25T12:08:24.966Z,17.20
2022-12-25T12:11:16.446Z,16.30
2022-12-25T12:13:49.276Z,16.10
2022-12-25T12:16:15.825Z,24.10
2022-12-25T12:18:49.764Z,21.80
2022-12-25T12:21:17.034Z,18.90
2022-12-25T12:23:49.271Z,16.70
2022-12-25T12:26:19.881Z,14.00
2022-12-25T12:28:47.233Z,10.30
2022-12-25T12:31:13.984Z,12.40
2022-12-25T12:33:48.306Z,14.90
2022-12-25T12:36:15.206Z,14.60
2022-12-25T12:38:43.100Z,10.80
2022-12-25T12:41:10.999Z,12.10
2022-12-25T12:43:54.466Z,9.00
2022-12-25T12:46:27.918Z,10.60
2022-12-25T12:49:18.919Z,10.70
2022-12-25T12:51:45.438Z,8.40
2022-12-25T12:54:21.039Z,13.00
2022-12-25T12:57:13.943Z,10.10
2022-12-25T12:59:43.806Z,11.30
2022-12-25T13:02:19.393Z,12.60
2022-12-25T13:05:03.181Z,11.30
2022-12-25T13:07:31.544Z,10.90
2022-12-25T13:10:07.099Z,11.20
2022-12-25T13:12:33.700Z,10.50
2022-12-25T13:15:00.050Z,11.30
2022-12-25T13:17:27.067Z,14.80
2022-12-25T13:19:55.488Z,12.20
2022-12-25T13:22:29.406Z,22.40
2022-12-25T13:24:57.276Z,17.30
2022-12-25T13:27:25.117Z,11.40
2022-12-25T13:29:51.544Z,13.60
2022-12-25T13:32:28.328Z,15.30
2022-12-25T13:34:54.978Z,19.30
2022-12-25T13:37:22.697Z,14.20
2022-12-25T13:39:56.228Z,22.80
2022-12-25T13:42:25.718Z,23.30
2022-12-25T13:44:57.171Z,26.00
2022-12-25T13:47:29.759Z,27.10
2022-12-25T13:49:56.995Z,35.70
2022-12-25T13:52:28.153Z,32.80
2022-12-25T13:57:23.481Z,28.90
2022-12-25T13:59:50.917Z,97.40
2022-12-25T14:02:19.632Z,81.60
2022-12-25T14:04:46.179Z,55.40
2022-12-25T14:07:17.592Z,28.90
2022-12-25T14:09:44.234Z,18.00
2022-12-25T14:12:15.745Z,52.50
2022-12-25T14:14:45.700Z,78.40
2022-12-25T14:17:12.285Z,44.10
2022-12-25T14:19:38.763Z,46.40
2022-12-25T14:22:05.315Z,53.10
2022-12-25T14:24:33.383Z,87.90
2022-12-25T14:27:01.346Z,65.80
2022-12-25T14:29:34.863Z,84.50
2022-12-25T14:32:03.665Z,163.80
2022-12-25T14:34:30.677Z,76.00
2022-12-25T14:36:57.227Z,19.30
2022-12-25T14:39:27.275Z,18.30
2022-12-25T14:41:53.658Z,16.00
2022-12-25T14:44:31.903Z,14.70
2022-12-25T14:47:10.527Z,67.90
2022-12-25T14:49:37.468Z,86.70
2022-12-25T14:52:24.281Z,128.20
2022-12-25T14:54:53.590Z,260.30
2022-12-25T14:57:39.951Z,102.80
2022-12-25T15:00:07.303Z,88.10
2022-12-25T15:02:38.159Z,69.20
2022-12-25T15:05:05.673Z,110.50
2022-12-25T15:07:32.238Z,110.00
2022-12-25T15:10:27.118Z,152.40
2022-12-25T15:12:45.158Z,126.60
2022-12-25T15:15:11.679Z,156.10
2022-12-25T15:17:38.197Z,283.00
2022-12-25T15:20:05.779Z,149.30
2022-12-25T15:22:54.236Z,113.50
2022-12-25T15:25:21.302Z,92.20
2022-12-25T15:27:48.285Z,45.00
2022-12-25T15:30:14.794Z,58.50
2022-12-25T15:32:41.260Z,56.40
2022-12-25T15:35:12.541Z,53.30
2022-12-25T15:37:39.525Z,65.50
2022-12-25T15:40:06.799Z,23.80
2022-12-25T15:42:33.389Z,21.80
2022-12-25T15:44:59.838Z,30.30
2022-12-25T15:47:26.282Z,38.00
2022-12-25T15:49:52.710Z,17.70
2022-12-25T15:52:19.301Z,15.70
2022-12-25T15:54:45.691Z,14.20
2022-12-25T15:57:22.059Z,16.10
2022-12-25T15:59:48.578Z,16.40
2022-12-25T16:02:16.370Z,13.60
2022-12-25T16:04:43.085Z,11.90
2022-12-25T16:07:17.089Z,17.20
2022-12-25T16:09:43.583Z,16.40
2022-12-25T16:12:09.978Z,55.30
2022-12-25T16:14:36.615Z,44.10
2022-12-25T16:17:03.254Z,43.50
2022-12-25T16:19:29.972Z,25.30
2022-12-25T16:21:56.493Z,42.40
2022-12-25T16:24:22.838Z,19.80
2022-12-25T16:26:49.482Z,19.30
2022-12-25T16:29:15.882Z,24.10
2022-12-25T16:31:42.395Z,18.20
2022-12-25T16:34:09.385Z,21.30
2022-12-25T16:36:36.940Z,23.70
2022-12-25T16:39:04.429Z,37.20
2022-12-25T16:41:30.871Z,19.50
2022-12-25T16:43:57.791Z,23.00
2022-12-25T16:46:24.301Z,28.20
2022-12-25T16:48:50.683Z,19.70
2022-12-25T16:51:18.393Z,17.70
2022-12-25T16:53:45.212Z,19.30
2022-12-25T16:56:24.704Z,24.00
2022-12-25T16:58:51.333Z,21.00
2022-12-25T17:01:19.767Z,18.50
2022-12-25T17:03:46.597Z,18.80
2022-12-25T17:06:13.135Z,21.90
2022-12-25T17:08:39.561Z,22.70
2022-12-25T17:11:06.052Z,21.40
2022-12-25T17:13:33.411Z,20.80
2022-12-25T17:15:59.880Z,20.00
2022-12-25T17:18:26.683Z,20.60
2022-12-25T17:20:53.564Z,18.40
2022-12-25T17:23:20.474Z,20.30
2022-12-25T17:25:46.905Z,19.30
2022-12-25T17:28:13.367Z,19.50
2022-12-25T17:30:39.846Z,16.10
2022-12-25T17:33:06.208Z,13.90
2022-12-25T17:35:34.462Z,19.80
2022-12-25T17:38:00.831Z,31.90
2022-12-25T17:40:27.344Z,21.30
2022-12-25T17:42:53.821Z,40.20
2022-12-25T17:45:20.258Z,13.30
2022-12-25T17:47:46.889Z,14.30
2022-12-25T17:50:13.422Z,22.10
2022-12-25T17:52:39.833Z,17.60
2022-12-25T17:55:06.496Z,14.90
2022-12-25T17:57:32.861Z,14.30
2022-12-25T17:59:59.208Z,15.20
2022-12-25T18:02:25.926Z,12.20
2022-12-25T18:04:52.686Z,21.50
2022-12-25T18:07:19.350Z,13.90
2022-12-25T18:09:45.899Z,21.50
2022-12-25T18:12:12.329Z,25.50
2022-12-25T18:14:38.745Z,17.10
2022-12-25T18:17:05.685Z,19.30
2022-12-25T18:19:32.085Z,41.80
2022-12-25T18:21:58.550Z,25.90
2022-12-25T18:24:25.129Z,15.80
2022-12-25T18:26:51.509Z,12.30
2022-12-25T18:29:17.950Z,11.90
2022-12-25T18:31:44.353Z,14.50
2022-12-25T18:34:11.079Z,15.50
2022-12-25T18:36:37.525Z,10.00
2022-12-25T18:39:03.929Z,13.20
2022-12-25T18:41:30.390Z,11.20
2022-12-25T18:43:59.067Z,12.50
2022-12-25T18:46:26.849Z,12.20
2022-12-25T18:48:54.843Z,15.40
2022-12-25T18:51:21.382Z,16.40
2022-12-25T18:53:47.824Z,15.60
2022-12-25T18:56:16.598Z,12.50
2022-12-25T18:58:43.003Z,12.20
2022-12-25T19:01:14.448Z,11.50
2022-12-25T19:03:41.185Z,15.60
2022-12-25T19:06:08.536Z,11.20
2022-12-25T19:08:35.123Z,13.70
2022-12-25T19:11:05.135Z,11.80
2022-12-25T19:13:31.564Z,9.60
2022-12-25T19:15:58.234Z,13.90
2022-12-25T19:18:24.950Z,10.50
2022-12-25T19:20:51.376Z,13.40
2022-12-25T19:23:17.797Z,10.90
2022-12-25T19:25:44.355Z,18.20
2022-12-25T19:28:10.837Z,20.10
2022-12-25T19:30:37.885Z,14.50
2022-12-25T19:33:05.624Z,19.20
2022-12-25T19:35:32.267Z,18.80
2022-12-25T19:37:58.764Z,27.60
2022-12-25T19:40:25.910Z,16.60
2022-12-25T19:42:52.549Z,19.50
2022-12-25T19:45:19.192Z,23.00
2022-12-25T19:47:45.795Z,18.80
2022-12-25T19:50:12.522Z,13.10
2022-12-25T19:52:39.106Z,15.40
2022-12-25T19:55:06.101Z,17.30
2022-12-25T19:57:32.788Z,14.10
2022-12-25T19:59:59.229Z,12.40
2022-12-25T20:02:25.779Z,10.30
2022-12-25T20:04:52.372Z,12.00
2022-12-25T20:07:18.830Z,11.60
2022-12-25T20:09:47.534Z,12.70
2022-12-25T20:12:15.793Z,9.70
2022-12-25T20:14:43.372Z,13.30
2022-12-25T20:17:15.819Z,8.90
2022-12-25T20:19:42.769Z,10.70
2022-12-25T20:22:09.212Z,11.70
2022-12-25T20:24:35.745Z,14.40
2022-12-25T20:27:02.482Z,10.00
2022-12-25T20:29:28.913Z,8.20
2022-12-25T20:31:55.948Z,7.80
2022-12-25T20:34:22.718Z,10.40
2022-12-25T20:36:49.100Z,10.30
2022-12-25T20:39:15.510Z,10.90
2022-12-25T20:41:42.212Z,9.90
2022-12-25T20:44:09.380Z,9.30
2022-12-25T20:46:36.717Z,8.80
2022-12-25T20:49:03.691Z,11.70
2022-12-25T20:51:30.295Z,12.00
2022-12-25T20:53:57.337Z,12.50
2022-12-25T20:56:25.218Z,12.50
2022-12-25T20:58:54.008Z,14.60
2022-12-25T21:01:20.934Z,19.50
2022-12-25T21:03:47.468Z,16.50
2022-12-25T21:06:14.011Z,19.70
2022-12-25T21:08:41.592Z,11.00
2022-12-25T21:11:08.697Z,13.90
2022-12-25T21:13:36.598Z,17.20
2022-12-25T21:16:07.831Z,13.20
2022-12-25T21:18:34.267Z,12.10
2022-12-25T21:21:04.896Z,11.70
2022-12-25T21:25:58.150Z,8.80
2022-12-25T21:28:29.451Z,9.70
2022-12-25T21:31:02.742Z,11.40
2022-12-25T21:33:47.990Z,10.80
2022-12-25T21:36:14.629Z,11.40
2022-12-25T21:38:41.210Z,15.20
2022-12-25T21:41:09.131Z,11.00
2022-12-25T21:43:36.409Z,10.80
2022-12-25T21:46:04.756Z,8.90
2022-12-25T21:48:32.004Z,9.60
2022-12-25T21:51:24.465Z,10.30
2022-12-25T21:53:51.041Z,9.70
2022-12-25T21:56:17.650Z,10.90
2022-12-25T21:58:44.021Z,13.50
2022-12-25T22:01:11.018Z,8.60
2022-12-25T22:03:37.632Z,9.40
2022-12-25T22:06:23.403Z,10.30
2022-12-25T22:08:49.859Z,8.10
2022-12-25T22:11:34.932Z,10.60
2022-12-25T22:14:20.304Z,13.00
2022-12-25T22:17:25.759Z,17.50
2022-12-25T22:19:52.428Z,14.50
2022-12-25T22:22:20.677Z,9.60
2022-12-25T22:24:47.825Z,11.80
2022-12-25T22:27:14.284Z,10.50
2022-12-25T22:29:41.608Z,11.00
2022-12-25T22:32:08.453Z,22.40
2022-12-25T22:34:35.129Z,14.80
2022-12-25T22:37:01.939Z,12.70
2022-12-25T22:47:24.124Z,42.40
2022-12-25T22:49:50.450Z,14.50
2022-12-25T22:52:16.856Z,27.50
2022-12-25T22:54:43.153Z,13.60
2022-12-25T22:57:09.530Z,11.90
2022-12-25T22:59:35.892Z,14.20
2022-12-25T23:02:02.415Z,7.50
2022-12-25T23:04:29.077Z,10.10
2022-12-25T23:06:55.697Z,9.10
2022-12-25T23:09:26.852Z,12.70
2022-12-25T23:14:38.013Z,8.70
2022-12-25T23:17:05.894Z,9.00
2022-12-25T23:19:51.067Z,13.40
2022-12-25T23:22:36.044Z,11.60
2022-12-25T23:25:21.014Z,10.30
2022-12-25T23:27:47.340Z,14.50
2022-12-25T23:30:15.208Z,13.60
2022-12-25T23:32:42.181Z,10.40
2022-12-25T23:35:08.810Z,15.30
2022-12-25T23:37:35.313Z,21.80
2022-12-25T23:40:02.309Z,16.20
2022-12-25T23:42:28.719Z,15.10
2022-12-25T23:44:55.142Z,15.70
2022-12-25T23:47:21.660Z,11.10
